Terminal Aerodrome Forecast
Issued by NWS Chicago, IL

Home | Current Version | Previous Version | Text Only | Print | Product List | Glossary On
Versions: 1 2 3 4 5 6 7 8 9 10 11 12 13 14 15 16 17 18 19 20 21 22 23 24 25 26 27 28 29 30 31 32 33 34 35 36 37 38 39 40
000
FTUS43 KLOT 310500 RRA
TAFRFD
TAF
KRFD 310548Z 3106/0106 VRB03KT P6SM FEW250
     FM310700 00000KT 4SM BCFG BR SCT300
     FM311400 23005KT P6SM SCT300
     FM311800 20008KT P6SM SCT030
     FM010200 16005KT P6SM SKC=

USA.gov is the U.S. government's official web portal to all federal, state and local government web resources and services.